createdAt,value
2022-09-11T00:01:55.589Z,16.43
2022-09-11T00:04:23.139Z,16.90
2022-09-11T00:06:50.683Z,16.70
2022-09-11T00:09:18.257Z,16.90
2022-09-11T00:11:45.788Z,16.60
2022-09-11T00:14:14.802Z,16.50
2022-09-11T00:16:44.847Z,16.63
2022-09-11T00:19:17.417Z,16.00
2022-09-11T00:21:45.349Z,14.77
2022-09-11T00:24:13.102Z,14.40
2022-09-11T00:26:42.312Z,16.07
2022-09-11T00:29:09.972Z,17.33
2022-09-11T00:31:38.326Z,16.97
2022-09-11T00:34:06.800Z,16.80
2022-09-11T00:36:39.176Z,16.00
2022-09-11T00:39:06.857Z,15.70
2022-09-11T00:41:39.002Z,16.90
2022-09-11T00:44:08.710Z,15.63
2022-09-11T00:46:40.661Z,15.13
2022-09-11T00:49:18.236Z,16.57
2022-09-11T00:51:49.771Z,15.87
2022-09-11T00:54:21.278Z,15.00
2022-09-11T00:56:50.237Z,16.13
2022-09-11T00:59:21.451Z,16.03
2022-09-11T01:01:49.157Z,16.40
2022-09-11T01:04:16.997Z,16.43
2022-09-11T01:06:47.190Z,15.87
2022-09-11T01:09:16.925Z,16.47
2022-09-11T01:11:49.987Z,16.33
2022-09-11T01:14:32.451Z,16.60
2022-09-11T01:17:13.078Z,16.03
2022-09-11T01:19:53.570Z,15.53
2022-09-11T01:22:32.080Z,16.47
2022-09-11T01:25:10.014Z,17.67
2022-09-11T01:27:44.537Z,18.30
2022-09-11T01:30:14.571Z,16.37
2022-09-11T01:32:50.311Z,16.00
2022-09-11T01:35:22.623Z,16.37
2022-09-11T01:37:55.994Z,15.37
2022-09-11T01:40:27.728Z,17.23
2022-09-11T01:43:01.375Z,17.30
2022-09-11T01:45:31.207Z,17.97
2022-09-11T01:48:00.663Z,18.07
2022-09-11T01:50:30.635Z,18.63
2022-09-11T01:52:59.858Z,22.40
2022-09-11T01:55:31.896Z,21.93
2022-09-11T01:58:03.695Z,22.13
2022-09-11T02:00:35.336Z,21.77
2022-09-11T02:03:09.399Z,22.73
2022-09-11T02:05:46.499Z,23.10
2022-09-11T02:08:16.963Z,24.73
2022-09-11T02:10:52.215Z,25.43
2022-09-11T02:13:27.810Z,26.10
2022-09-11T02:15:59.836Z,26.03
2022-09-11T02:18:32.126Z,27.70
2022-09-11T02:20:59.720Z,27.87
2022-09-11T02:23:27.252Z,27.23
2022-09-11T02:25:54.873Z,28.10
2022-09-11T02:28:23.968Z,27.03
2022-09-11T02:30:51.506Z,26.73
2022-09-11T02:33:30.428Z,30.87
2022-09-11T02:36:06.720Z,34.70
2022-09-11T02:38:41.306Z,32.77
2022-09-11T02:41:14.056Z,33.57
2022-09-11T02:43:54.862Z,30.77
2022-09-11T02:46:34.381Z,32.30
2022-09-11T02:49:09.238Z,32.93
2022-09-11T02:51:40.592Z,32.47
2022-09-11T02:54:13.537Z,35.50
2022-09-11T02:56:43.722Z,34.03
2022-09-11T02:59:17.749Z,37.13
2022-09-11T03:01:53.419Z,37.23
2022-09-11T03:04:22.242Z,36.20
2022-09-11T03:06:50.420Z,34.93
2022-09-11T03:09:19.285Z,34.87
2022-09-11T03:11:46.937Z,34.90
2022-09-11T03:14:16.173Z,34.33
2022-09-11T03:16:43.745Z,33.80
2022-09-11T03:19:12.026Z,34.83
2022-09-11T03:21:40.210Z,35.13
2022-09-11T03:24:09.730Z,37.83
2022-09-11T03:26:37.390Z,41.80
2022-09-11T03:29:05.472Z,42.67
2022-09-11T03:31:38.614Z,44.20
2022-09-11T03:34:07.333Z,46.87
2022-09-11T03:36:35.302Z,48.23
2022-09-11T03:39:03.233Z,49.13
2022-09-11T03:41:30.769Z,48.23
2022-09-11T03:43:58.270Z,48.70
2022-09-11T03:46:25.850Z,45.97
2022-09-11T03:48:54.931Z,44.80
2022-09-11T03:51:22.522Z,44.50
2022-09-11T03:53:50.074Z,44.67
2022-09-11T03:56:17.769Z,51.53
2022-09-11T03:58:45.696Z,50.90
2022-09-11T04:01:15.106Z,52.43
2022-09-11T04:03:43.145Z,55.30
2022-09-11T04:06:12.115Z,53.17
2022-09-11T04:08:41.234Z,55.37
2022-09-11T04:11:09.637Z,56.77
2022-09-11T04:13:38.766Z,55.57
2022-09-11T04:16:09.711Z,54.77
2022-09-11T04:18:38.984Z,54.17
2022-09-11T04:21:07.324Z,54.30
2022-09-11T04:23:37.094Z,52.87
2022-09-11T04:26:05.797Z,52.73
2022-09-11T04:28:33.351Z,57.43
2022-09-11T04:31:03.420Z,59.67
2022-09-11T04:33:31.073Z,55.27
2022-09-11T04:35:58.622Z,55.73
2022-09-11T04:38:26.648Z,60.30
2022-09-11T04:40:55.698Z,56.73
2022-09-11T04:43:23.479Z,59.87
2022-09-11T04:45:51.174Z,55.07
2022-09-11T04:48:19.086Z,59.13
2022-09-11T04:50:48.542Z,55.20
2022-09-11T04:53:16.321Z,57.97
2022-09-11T04:55:43.874Z,58.27
2022-09-11T04:58:13.890Z,60.30
2022-09-11T05:00:41.489Z,61.33
2022-09-11T05:03:09.092Z,60.17
2022-09-11T05:05:36.854Z,61.73
2022-09-11T05:08:04.890Z,61.23
2022-09-11T05:10:32.409Z,60.40
2022-09-11T05:13:00.039Z,57.30
2022-09-11T05:15:31.735Z,58.83
2022-09-11T05:17:59.263Z,59.33
2022-09-11T05:20:26.921Z,58.37
2022-09-11T05:22:54.469Z,59.60
2022-09-11T05:25:21.978Z,59.40
2022-09-11T05:27:50.325Z,59.87
2022-09-11T05:30:17.986Z,56.70
2022-09-11T05:32:47.553Z,60.23
2022-09-11T05:35:15.459Z,59.07
2022-09-11T05:37:43.001Z,56.23
2022-09-11T05:40:12.418Z,58.33
2022-09-11T05:42:40.153Z,56.97
2022-09-11T05:45:09.457Z,57.67
2022-09-11T05:47:37.032Z,58.27
2022-09-11T05:50:07.262Z,56.60
2022-09-11T05:52:35.120Z,58.53
2022-09-11T05:55:02.990Z,57.67
2022-09-11T05:57:30.550Z,53.23
2022-09-11T05:59:58.702Z,54.27
2022-09-11T06:02:26.858Z,53.70
2022-09-11T06:04:56.386Z,55.33
2022-09-11T06:07:26.745Z,55.97
2022-09-11T06:09:54.384Z,55.67
2022-09-11T06:12:21.910Z,55.87
2022-09-11T06:14:49.810Z,54.03
2022-09-11T06:17:17.724Z,53.23
2022-09-11T06:19:45.530Z,53.17
2022-09-11T06:22:13.707Z,50.27
2022-09-11T06:24:43.019Z,48.83
2022-09-11T06:27:10.615Z,50.77
2022-09-11T06:29:38.285Z,50.57
2022-09-11T06:32:06.647Z,50.77
2022-09-11T06:34:34.706Z,49.07
2022-09-11T06:37:02.273Z,49.97
2022-09-11T06:39:30.035Z,52.20
2022-09-11T06:41:59.523Z,51.07
2022-09-11T06:44:27.480Z,52.70
2022-09-11T06:46:55.383Z,51.33
2022-09-11T06:49:23.133Z,53.43
2022-09-11T06:51:52.261Z,53.53
2022-09-11T06:54:19.787Z,52.67
2022-09-11T06:56:47.443Z,52.90
2022-09-11T06:59:16.648Z,53.70
2022-09-11T07:01:44.872Z,55.43
2022-09-11T07:04:12.579Z,52.60
2022-09-11T07:06:40.737Z,53.20
2022-09-11T07:09:08.293Z,56.00
2022-09-11T07:11:36.553Z,53.43
2022-09-11T07:14:05.872Z,53.83
2022-09-11T07:16:34.937Z,53.43
2022-09-11T07:19:03.531Z,50.57
2022-09-11T07:21:31.902Z,50.63
2022-09-11T07:24:00.990Z,50.83
2022-09-11T07:26:29.886Z,48.80
2022-09-11T07:28:59.019Z,46.03
2022-09-11T07:31:29.062Z,42.43
2022-09-11T07:33:58.030Z,35.40
2022-09-11T07:36:27.786Z,36.43
2022-09-11T07:38:56.392Z,35.70
2022-09-11T07:41:25.446Z,34.53
2022-09-11T07:43:54.022Z,34.30
2022-09-11T07:46:22.070Z,34.47
2022-09-11T07:48:49.719Z,36.30
2022-09-11T07:51:19.677Z,37.30
2022-09-11T07:53:50.010Z,39.07
2022-09-11T07:56:19.731Z,36.40
2022-09-11T07:58:47.927Z,36.97
2022-09-11T08:01:17.575Z,37.93
2022-09-11T08:03:45.919Z,37.37
2022-09-11T08:06:20.141Z,39.73
2022-09-11T08:08:53.261Z,38.87
2022-09-11T08:11:22.144Z,38.90
2022-09-11T08:13:51.679Z,38.97
2022-09-11T08:16:19.697Z,38.10
2022-09-11T08:18:48.374Z,35.30
2022-09-11T08:21:17.125Z,35.23
2022-09-11T08:23:46.028Z,33.03
2022-09-11T08:26:17.356Z,33.43
2022-09-11T08:28:45.438Z,34.63
2022-09-11T08:31:14.387Z,32.23
2022-09-11T08:33:42.578Z,32.77
2022-09-11T08:36:14.686Z,33.07
2022-09-11T08:38:43.679Z,31.33
2022-09-11T08:41:14.104Z,31.00
2022-09-11T08:43:50.705Z,30.67
2022-09-11T08:46:20.023Z,28.23
2022-09-11T08:48:54.612Z,29.50
2022-09-11T08:51:22.297Z,29.33
2022-09-11T08:53:51.394Z,29.93
2022-09-11T08:56:22.494Z,29.97
2022-09-11T08:59:04.196Z,28.23
2022-09-11T09:01:37.418Z,28.53
2022-09-11T09:04:16.761Z,27.83
2022-09-11T09:06:55.439Z,28.50
2022-09-11T09:09:34.984Z,26.73
2022-09-11T09:12:09.655Z,28.73
2022-09-11T09:15:06.533Z,27.73
2022-09-11T09:17:38.056Z,27.87
2022-09-11T09:20:10.947Z,29.97
2022-09-11T09:22:43.231Z,29.47
2022-09-11T09:25:14.115Z,27.23
2022-09-11T09:27:47.038Z,28.30
2022-09-11T09:30:18.707Z,28.50
2022-09-11T09:32:50.694Z,29.17
2022-09-11T09:35:23.258Z,27.23
2022-09-11T09:37:51.130Z,27.60
2022-09-11T09:40:19.636Z,27.87
2022-09-11T09:43:11.002Z,27.30
2022-09-11T09:45:49.521Z,27.70
2022-09-11T09:48:17.445Z,27.13
2022-09-11T09:50:45.339Z,28.17
2022-09-11T09:53:20.170Z,27.07
2022-09-11T09:55:48.026Z,28.40
2022-09-11T09:58:15.957Z,28.07
2022-09-11T10:00:46.038Z,27.73
2022-09-11T10:03:20.341Z,29.73
2022-09-11T10:05:49.401Z,28.90
2022-09-11T10:08:29.226Z,28.63
2022-09-11T10:10:58.253Z,28.63
2022-09-11T10:13:28.581Z,29.00
2022-09-11T10:16:00.509Z,28.67
2022-09-11T10:18:35.897Z,28.53
2022-09-11T10:21:16.639Z,27.90
2022-09-11T10:23:46.943Z,27.70
2022-09-11T10:26:17.944Z,26.83
2022-09-11T10:28:46.895Z,26.93
2022-09-11T10:31:17.382Z,27.20
2022-09-11T10:33:49.234Z,27.67
2022-09-11T10:36:23.764Z,24.67
2022-09-11T10:38:52.166Z,26.07
2022-09-11T10:41:22.315Z,25.93
2022-09-11T10:43:58.793Z,25.77
2022-09-11T10:46:39.566Z,26.07
2022-09-11T10:49:18.790Z,25.83
2022-09-11T10:52:00.478Z,27.53
2022-09-11T10:54:39.274Z,26.37
2022-09-11T10:57:14.617Z,26.47
2022-09-11T10:59:46.214Z,26.70
2022-09-11T11:02:21.630Z,26.90
2022-09-11T11:04:49.485Z,27.37
2022-09-11T11:07:31.666Z,28.60
2022-09-11T11:10:07.350Z,27.50
2022-09-11T11:12:43.634Z,26.97
2022-09-11T11:15:30.249Z,26.73
2022-09-11T11:18:11.910Z,27.07
2022-09-11T11:20:46.938Z,26.80
2022-09-11T11:23:26.715Z,25.80
2022-09-11T11:26:04.168Z,26.80
2022-09-11T11:28:42.753Z,26.90
2022-09-11T11:31:22.696Z,26.03
2022-09-11T11:34:08.186Z,25.50
2022-09-11T11:36:39.528Z,26.07
2022-09-11T11:39:15.526Z,26.27
2022-09-11T11:41:46.649Z,26.40
2022-09-11T11:44:16.759Z,27.07
2022-09-11T11:46:47.803Z,26.37
2022-09-11T11:49:21.266Z,26.57
2022-09-11T11:51:51.416Z,26.13
2022-09-11T11:54:23.515Z,28.00
2022-09-11T11:56:53.734Z,27.73
2022-09-11T11:59:25.754Z,27.27
2022-09-11T12:01:57.615Z,27.07
2022-09-11T12:04:39.714Z,26.47
2022-09-11T12:07:15.249Z,28.17
2022-09-11T12:09:49.331Z,27.10
2022-09-11T12:12:19.246Z,28.17
2022-09-11T12:14:51.890Z,26.53
2022-09-11T12:17:24.260Z,23.97
2022-09-11T12:20:16.534Z,22.90
2022-09-11T12:22:45.759Z,19.53
2022-09-11T12:25:45.953Z,21.50
2022-09-11T12:28:22.810Z,22.23
2022-09-11T12:30:59.202Z,23.63
2022-09-11T12:33:54.557Z,23.20
2022-09-11T12:36:53.778Z,22.07
2022-09-11T12:39:31.210Z,21.47
2022-09-11T12:42:44.384Z,19.60
2022-09-11T12:45:31.218Z,20.53
2022-09-11T12:48:05.633Z,19.93
2022-09-11T12:50:33.606Z,20.53
2022-09-11T12:53:04.183Z,19.20
2022-09-11T12:55:39.546Z,20.30
2022-09-11T12:58:24.517Z,16.07
2022-09-11T13:01:02.618Z,17.27
2022-09-11T13:03:31.191Z,14.47
2022-09-11T13:06:01.392Z,13.10
2022-09-11T13:08:33.809Z,12.40
2022-09-11T13:11:36.374Z,12.97
2022-09-11T13:14:05.155Z,13.50
2022-09-11T13:16:34.759Z,13.50
2022-09-11T13:19:11.942Z,13.13
2022-09-11T13:21:41.660Z,12.70
2022-09-11T13:24:25.341Z,12.17
2022-09-11T13:26:55.499Z,11.93
2022-09-11T13:29:24.722Z,13.17
2022-09-11T13:31:52.601Z,12.50
2022-09-11T13:34:21.883Z,11.73
2022-09-11T13:36:54.603Z,11.17
2022-09-11T13:39:26.435Z,11.20
2022-09-11T13:41:59.354Z,10.97
2022-09-11T13:44:35.368Z,10.10
2022-09-11T13:47:06.406Z,10.60
2022-09-11T13:49:36.139Z,9.93
2022-09-11T13:52:06.204Z,10.60
2022-09-11T13:54:38.718Z,9.27
2022-09-11T13:57:13.407Z,8.97
2022-09-11T13:59:46.281Z,9.47
2022-09-11T14:02:37.277Z,9.13
2022-09-11T14:05:12.322Z,9.00
2022-09-11T14:07:47.186Z,9.10
2022-09-11T14:10:38.395Z,8.47
2022-09-11T14:13:14.141Z,8.73
2022-09-11T14:15:43.456Z,8.63
2022-09-11T14:18:21.828Z,7.93
2022-09-11T14:20:49.466Z,8.37
2022-09-11T14:23:20.816Z,7.20
2022-09-11T14:26:06.673Z,8.07
2022-09-11T14:28:37.415Z,8.13
2022-09-11T14:31:09.480Z,8.37
2022-09-11T14:33:37.093Z,8.07
2022-09-11T14:36:07.942Z,9.53
2022-09-11T14:38:36.120Z,9.40
2022-09-11T14:41:07.643Z,9.37
2022-09-11T14:43:36.534Z,8.80
2022-09-11T14:46:04.390Z,8.87
2022-09-11T14:48:34.450Z,10.03
2022-09-11T14:51:08.857Z,10.43
2022-09-11T14:53:43.724Z,9.73
2022-09-11T14:56:12.860Z,10.57
2022-09-11T14:58:40.505Z,10.77
2022-09-11T15:01:09.905Z,10.23
2022-09-11T15:03:37.547Z,10.20
2022-09-11T15:06:05.294Z,9.70
2022-09-11T15:08:32.968Z,10.17
2022-09-11T15:11:00.527Z,11.40
2022-09-11T15:13:29.455Z,10.77
2022-09-11T15:15:57.073Z,11.47
2022-09-11T15:18:24.834Z,11.63
2022-09-11T15:20:52.851Z,12.70
2022-09-11T15:23:20.842Z,13.00
2022-09-11T15:25:48.351Z,12.30
2022-09-11T15:28:16.265Z,12.17
2022-09-11T15:30:45.236Z,13.33
2022-09-11T15:33:12.818Z,13.67
2022-09-11T15:35:40.679Z,13.63
2022-09-11T15:38:10.036Z,12.60
2022-09-11T15:40:37.800Z,13.40
2022-09-11T15:43:05.364Z,13.40
2022-09-11T15:45:33.095Z,12.40
2022-09-11T15:48:02.265Z,12.13
2022-09-11T15:50:30.188Z,13.23
2022-09-11T15:52:58.499Z,12.80
2022-09-11T15:55:30.074Z,12.40
2022-09-11T15:57:58.015Z,13.40
2022-09-11T16:00:25.541Z,12.93
2022-09-11T16:02:54.119Z,13.50
2022-09-11T16:05:23.146Z,12.90
2022-09-11T16:07:50.690Z,13.10
2022-09-11T16:10:18.564Z,12.47
2022-09-11T16:12:46.971Z,12.67
2022-09-11T16:15:14.482Z,12.13
2022-09-11T16:17:41.965Z,13.50
2022-09-11T16:20:11.341Z,12.37
2022-09-11T16:22:40.169Z,12.87
2022-09-11T16:25:08.578Z,12.87
2022-09-11T16:27:36.083Z,11.57
2022-09-11T16:32:52.418Z,12.33
2022-09-11T16:35:20.268Z,12.53
2022-09-11T16:37:49.240Z,12.70
2022-09-11T16:40:17.019Z,11.97
2022-09-11T16:42:44.688Z,12.23
2022-09-11T16:45:12.328Z,11.87
2022-09-11T16:47:40.608Z,11.70
2022-09-11T16:50:08.940Z,12.80
2022-09-11T16:52:36.889Z,12.27
2022-09-11T16:55:07.527Z,11.77
2022-09-11T16:57:35.564Z,12.60
2022-09-11T17:00:03.653Z,11.87
2022-09-11T17:02:31.466Z,11.67
2022-09-11T17:04:59.015Z,12.00
2022-09-11T17:07:26.762Z,11.33
2022-09-11T17:09:54.592Z,11.87
2022-09-11T17:12:24.216Z,11.90
2022-09-11T17:14:51.891Z,11.77
2022-09-11T17:17:19.426Z,12.40
2022-09-11T17:19:50.902Z,11.77
2022-09-11T17:22:18.595Z,12.40
2022-09-11T17:24:46.163Z,12.60
2022-09-11T17:27:13.958Z,12.27
2022-09-11T17:29:44.790Z,12.17
2022-09-11T17:32:27.888Z,12.17
2022-09-11T17:34:56.706Z,12.87
2022-09-11T17:37:24.910Z,12.63
2022-09-11T17:39:52.800Z,12.83
2022-09-11T17:42:20.688Z,11.93
2022-09-11T17:44:49.787Z,12.07
2022-09-11T17:47:17.384Z,12.03
2022-09-11T17:49:45.206Z,12.90
2022-09-11T17:52:13.839Z,11.90
2022-09-11T17:54:41.451Z,11.70
2022-09-11T17:57:09.217Z,11.60
2022-09-11T17:59:37.559Z,12.77
2022-09-11T18:02:06.648Z,13.10
2022-09-11T18:04:34.222Z,12.00
2022-09-11T18:07:02.389Z,13.20
2022-09-11T18:09:29.917Z,12.20
2022-09-11T18:11:57.761Z,12.20
2022-09-11T18:14:27.769Z,13.70
2022-09-11T18:16:55.803Z,13.13
2022-09-11T18:19:28.156Z,13.67
2022-09-11T18:21:56.143Z,13.13
2022-09-11T18:24:24.061Z,13.73
2022-09-11T18:26:56.050Z,13.80
2022-09-11T18:29:26.882Z,12.87
2022-09-11T18:31:55.801Z,13.60
2022-09-11T18:34:27.460Z,13.07
2022-09-11T18:36:55.576Z,13.23
2022-09-11T18:39:25.316Z,13.03
2022-09-11T18:41:54.142Z,13.20
2022-09-11T18:44:24.743Z,12.90
2022-09-11T18:46:54.133Z,11.60
2022-09-11T18:49:22.552Z,12.43
2022-09-11T18:51:53.731Z,12.13
2022-09-11T18:54:21.810Z,12.77
2022-09-11T18:56:50.283Z,12.60
2022-09-11T18:59:19.327Z,11.73
2022-09-11T19:01:47.491Z,11.93
2022-09-11T19:04:16.358Z,12.70
2022-09-11T19:06:44.668Z,12.50
2022-09-11T19:09:14.700Z,11.97
2022-09-11T19:11:43.417Z,13.27
2022-09-11T19:14:12.302Z,14.77
2022-09-11T19:16:40.550Z,14.57
2022-09-11T19:19:08.704Z,14.13
2022-09-11T19:21:38.014Z,12.70
2022-09-11T19:24:06.636Z,13.23
2022-09-11T19:26:39.258Z,12.80
2022-09-11T19:29:08.536Z,12.83
2022-09-11T19:31:39.058Z,12.03
2022-09-11T19:34:07.744Z,12.77
2022-09-11T19:36:36.725Z,12.20
2022-09-11T19:39:05.848Z,12.13
2022-09-11T19:41:38.552Z,12.80
2022-09-11T19:44:08.826Z,12.67
2022-09-11T19:46:38.052Z,11.53
2022-09-11T19:49:07.089Z,12.47
2022-09-11T19:51:36.473Z,11.87
2022-09-11T19:54:04.847Z,11.93
2022-09-11T19:56:33.707Z,12.20
2022-09-11T19:59:02.725Z,12.00
2022-09-11T20:01:31.149Z,12.33
2022-09-11T20:04:00.734Z,12.63
2022-09-11T20:06:29.993Z,11.87
2022-09-11T20:09:19.832Z,12.17
2022-09-11T20:11:46.555Z,11.60
2022-09-11T20:14:16.097Z,13.20
2022-09-11T20:16:44.475Z,12.60
2022-09-11T20:19:15.261Z,13.57
2022-09-11T20:21:42.895Z,14.33
2022-09-11T20:24:10.459Z,14.57
2022-09-11T20:26:38.621Z,14.53
2022-09-11T20:29:07.801Z,14.77
2022-09-11T20:31:46.361Z,14.00
2022-09-11T20:34:15.268Z,14.37
2022-09-11T20:36:42.990Z,14.10
2022-09-11T20:39:12.247Z,14.63
2022-09-11T20:41:39.812Z,14.43
2022-09-11T20:44:07.650Z,15.30
2022-09-11T20:46:36.657Z,14.23
2022-09-11T20:49:05.350Z,14.50
2022-09-11T20:51:34.025Z,15.07
2022-09-11T20:54:01.545Z,15.10
2022-09-11T20:56:29.459Z,14.87
2022-09-11T20:58:58.092Z,14.93
2022-09-11T21:01:27.612Z,15.93
2022-09-11T21:03:57.826Z,15.63
2022-09-11T21:06:27.057Z,14.97
2022-09-11T21:08:56.290Z,15.17
2022-09-11T21:11:24.243Z,15.67
2022-09-11T21:13:52.093Z,15.97
2022-09-11T21:16:20.493Z,15.57
2022-09-11T21:18:49.512Z,15.27
2022-09-11T21:21:19.323Z,15.80
2022-09-11T21:23:47.122Z,15.70
2022-09-11T21:26:18.222Z,15.80
2022-09-11T21:28:46.355Z,16.63
2022-09-11T21:31:14.157Z,15.93
2022-09-11T21:33:41.757Z,16.27
2022-09-11T21:36:09.555Z,16.40
2022-09-11T21:38:38.794Z,16.27
2022-09-11T21:41:08.558Z,16.30
2022-09-11T21:43:36.531Z,17.73
2022-09-11T21:46:05.235Z,17.00
2022-09-11T21:48:35.912Z,17.13
2022-09-11T21:51:09.902Z,16.60
2022-09-11T21:53:39.193Z,16.40
2022-09-11T21:56:07.651Z,16.67
2022-09-11T21:58:35.763Z,16.87
2022-09-11T22:01:05.763Z,16.77
2022-09-11T22:03:33.424Z,16.63
2022-09-11T22:06:01.222Z,17.10
2022-09-11T22:08:28.770Z,17.03
2022-09-11T22:10:57.704Z,15.97
2022-09-11T22:13:25.275Z,16.13
2022-09-11T22:15:52.939Z,16.37
2022-09-11T22:18:20.690Z,16.30
2022-09-11T22:20:49.043Z,16.27
2022-09-11T22:23:18.074Z,17.20
2022-09-11T22:25:46.319Z,16.70
2022-09-11T22:28:16.055Z,17.03
2022-09-11T22:30:43.767Z,17.10
2022-09-11T22:33:11.850Z,16.77
2022-09-11T22:35:39.691Z,17.30
2022-09-11T22:38:07.498Z,17.83
2022-09-11T22:40:35.026Z,17.47
2022-09-11T22:43:02.554Z,17.63
2022-09-11T22:45:31.569Z,17.53
2022-09-11T22:47:59.616Z,18.00
2022-09-11T22:50:27.587Z,18.07
2022-09-11T22:52:55.245Z,18.23
2022-09-11T22:55:22.765Z,17.53
2022-09-11T22:57:50.278Z,17.37
2022-09-11T23:00:19.577Z,17.47
2022-09-11T23:02:48.491Z,17.47
2022-09-11T23:05:33.534Z,18.27
2022-09-11T23:08:01.246Z,18.30
2022-09-11T23:10:28.749Z,18.10
2022-09-11T23:12:56.313Z,18.00
2022-09-11T23:15:24.146Z,17.40
2022-09-11T23:17:53.627Z,16.73
2022-09-11T23:20:21.189Z,18.17
2022-09-11T23:22:48.693Z,18.43
2022-09-11T23:25:16.313Z,17.30
2022-09-11T23:27:45.403Z,16.90
2022-09-11T23:30:13.629Z,18.13
2022-09-11T23:32:42.030Z,18.83
2022-09-11T23:35:11.281Z,18.47
2022-09-11T23:37:42.342Z,17.60
2022-09-11T23:40:13.070Z,18.00
2022-09-11T23:42:40.671Z,19.43
2022-09-11T23:45:10.058Z,18.37
2022-09-11T23:47:37.614Z,18.73
2022-09-11T23:50:06.539Z,18.57
2022-09-11T23:52:36.624Z,19.20
2022-09-11T23:55:04.846Z,18.07
2022-09-11T23:57:32.662Z,17.97
